Time;durP1;ratioP1;P1;durP2;ratioP2;P2;SDS_P1;SDS_P2;PMS_P1;PMS_P2;Temp;Humidity;BMP_temperature;BMP_pressure;BME280_temperature;BME280_humidity;BME280_pressure;Samples;Min_cycle;Max_cycle;Signal;HPM_P1;HPM_P2
2021/10/07 00:01:18;;;;;;;19.15;5.57;;;8.30;64.00;;;;;;5054840;28;20040;-75
2021/10/07 00:03:44;;;;;;;19.25;5.72;;;8.20;64.00;;;;;;5055049;28;20033;-75
2021/10/07 00:06:10;;;;;;;12.05;4.82;;;8.30;64.10;;;;;;5040039;28;20025;-75
2021/10/07 00:08:35;;;;;;;10.82;4.40;;;8.20;64.00;;;;;;5054715;28;20102;-75
2021/10/07 00:11:01;;;;;;;10.70;4.43;;;8.20;64.10;;;;;;5054186;28;20036;-75
2021/10/07 00:13:27;;;;;;;11.77;4.80;;;8.20;64.30;;;;;;5073610;28;20363;-75
2021/10/07 00:15:53;;;;;;;12.13;4.53;;;8.20;64.50;;;;;;5050350;28;20024;-75
2021/10/07 00:18:19;;;;;;;16.05;4.90;;;8.20;64.70;;;;;;5054957;28;20394;-75
2021/10/07 00:20:45;;;;;;;8.63;3.85;;;8.20;64.80;;;;;;5036565;28;20090;-75
2021/10/07 00:23:11;;;;;;;6.35;3.70;;;8.10;64.90;;;;;;5045146;28;20033;-75
2021/10/07 00:25:37;;;;;;;11.43;4.00;;;8.10;65.00;;;;;;5036930;28;20039;-75
2021/10/07 00:28:09;;;;;;;13.35;4.63;;;8.20;65.10;;;;;;5039311;28;20111;-76
2021/10/07 00:30:37;;;;;;;9.00;4.63;;;8.20;65.20;;;;;;5043944;28;20116;-75
2021/10/07 00:40:49;;;;;;;7.88;3.95;;;8.10;66.70;;;;;;5073674;28;20043;-75
2021/10/07 00:43:15;;;;;;;6.47;3.95;;;8.10;67.50;;;;;;5064935;28;20037;-75
2021/10/07 00:45:41;;;;;;;10.07;4.53;;;8.00;67.60;;;;;;5036738;28;20448;-75
2021/10/07 00:48:07;;;;;;;6.88;3.83;;;8.00;67.60;;;;;;5057348;28;20383;-76
2021/10/07 00:50:32;;;;;;;7.30;4.15;;;7.90;67.80;;;;;;5061509;28;20451;-76
2021/10/07 00:52:58;;;;;;;7.82;3.95;;;7.90;67.90;;;;;;5036246;28;20112;-76
2021/10/07 00:55:25;;;;;;;6.88;4.20;;;7.90;68.20;;;;;;5053725;28;20448;-78
2021/10/07 00:57:51;;;;;;;5.57;3.88;;;7.80;68.40;;;;;;5035990;28;20036;-75
2021/10/07 01:00:16;;;;;;;7.40;3.78;;;7.80;68.60;;;;;;5036085;28;20037;-76
2021/10/07 01:02:42;;;;;;;6.65;3.72;;;7.80;68.70;;;;;;5053884;28;20028;-75
2021/10/07 01:05:08;;;;;;;9.75;4.72;;;7.70;68.80;;;;;;5060448;28;20352;-76
2021/10/07 01:07:34;;;;;;;7.55;4.18;;;7.70;69.10;;;;;;5053626;28;20407;-76
2021/10/07 01:10:00;;;;;;;5.68;3.85;;;7.70;69.20;;;;;;5057978;28;20035;-75
2021/10/07 01:12:25;;;;;;;7.00;4.45;;;7.70;69.10;;;;;;5057830;28;20095;-75
2021/10/07 01:14:57;;;;;;;7.55;4.80;;;7.70;69.20;;;;;;5072237;28;20036;-75
2021/10/07 01:17:26;;;;;;;8.25;4.72;;;7.60;69.40;;;;;;5065380;28;20025;-75
2021/10/07 01:19:53;;;;;;;6.55;3.95;;;7.60;69.60;;;;;;5054327;28;20062;-76
2021/10/07 01:22:20;;;;;;;9.30;4.15;;;7.60;69.40;;;;;;5053840;28;20025;-75
2021/10/07 01:24:47;;;;;;;9.88;4.30;;;7.60;69.20;;;;;;5066332;28;20033;-76
2021/10/07 01:27:13;;;;;;;9.35;4.40;;;7.60;69.20;;;;;;5061808;28;20065;-75
2021/10/07 01:29:40;;;;;;;6.72;4.60;;;7.60;69.30;;;;;;5060985;28;20028;-75
2021/10/07 01:32:07;;;;;;;7.93;4.15;;;7.60;70.00;;;;;;5053427;28;20056;-75
2021/10/07 01:34:33;;;;;;;6.78;3.90;;;7.60;69.20;;;;;;5059758;28;20055;-76
2021/10/07 01:36:59;;;;;;;6.15;3.78;;;7.50;69.10;;;;;;5046237;28;20029;-75
2021/10/07 01:39:25;;;;;;;6.90;4.32;;;7.60;69.20;;;;;;5060094;28;20036;-75
2021/10/07 01:41:52;;;;;;;7.35;3.97;;;7.50;69.10;;;;;;5053503;28;20079;-76
2021/10/07 01:44:23;;;;;;;7.07;4.10;;;7.50;69.20;;;;;;5053341;28;20103;-75
2021/10/07 01:46:49;;;;;;;7.05;4.10;;;7.50;69.10;;;;;;5035569;28;20383;-76
2021/10/07 01:49:15;;;;;;;5.90;3.58;;;7.50;69.10;;;;;;5043890;28;20033;-75
2021/10/07 01:51:41;;;;;;;7.20;4.00;;;7.40;69.20;;;;;;5054640;28;20375;-75
2021/10/07 01:54:07;;;;;;;8.00;3.92;;;7.40;69.20;;;;;;5063285;28;20052;-75
2021/10/07 01:56:33;;;;;;;6.07;3.70;;;7.40;69.10;;;;;;5036404;28;20083;-77
2021/10/07 01:58:59;;;;;;;5.75;3.70;;;7.40;69.30;;;;;;5060913;28;20036;-80
2021/10/07 02:01:25;;;;;;;6.53;3.70;;;7.40;69.30;;;;;;5061478;28;20064;-84
2021/10/07 02:03:51;;;;;;;10.02;4.00;;;7.40;69.30;;;;;;5053308;28;20033;-84
2021/10/07 02:06:17;;;;;;;6.70;3.88;;;7.40;69.30;;;;;;5043309;28;20032;-82
2021/10/07 02:08:42;;;;;;;6.53;3.42;;;7.40;69.20;;;;;;5035188;28;20407;-84
2021/10/07 02:11:09;;;;;;;7.90;3.92;;;7.30;69.00;;;;;;5035258;28;20029;-83
2021/10/07 02:13:35;;;;;;;5.95;3.42;;;7.40;68.90;;;;;;5043518;28;20025;-81
2021/10/07 02:16:01;;;;;;;6.25;3.85;;;7.30;68.90;;;;;;5043257;28;20048;-84
2021/10/07 02:18:26;;;;;;;8.98;4.60;;;7.30;69.00;;;;;;5035355;28;20029;-83
2021/10/07 02:20:53;;;;;;;8.50;4.40;;;7.20;69.20;;;;;;5047909;28;20039;-83
2021/10/07 02:23:20;;;;;;;5.32;3.83;;;7.20;69.50;;;;;;5046204;28;20025;-80
2021/10/07 02:25:46;;;;;;;8.40;4.07;;;7.20;69.50;;;;;;5060448;28;20043;-83
2021/10/07 02:28:13;;;;;;;9.52;4.40;;;7.20;69.60;;;;;;5035217;28;20119;-83
2021/10/07 02:30:39;;;;;;;8.68;4.68;;;7.20;69.80;;;;;;5060822;28;20037;-83
2021/10/07 02:33:05;;;;;;;5.45;3.75;;;7.10;69.70;;;;;;5053004;28;20025;-83
2021/10/07 02:35:31;;;;;;;7.95;4.07;;;7.10;69.70;;;;;;5047079;28;20034;-83
2021/10/07 02:37:57;;;;;;;9.52;4.35;;;7.10;69.90;;;;;;5046567;28;20390;-83
2021/10/07 02:40:23;;;;;;;6.13;3.97;;;7.00;70.20;;;;;;5063158;28;20051;-82
2021/10/07 02:42:49;;;;;;;6.43;3.85;;;7.00;70.50;;;;;;5047799;28;20033;-83
2021/10/07 02:45:16;;;;;;;6.85;3.70;;;7.00;70.60;;;;;;5044588;28;20364;-83
2021/10/07 02:47:42;;;;;;;8.45;3.75;;;6.90;70.70;;;;;;5059295;28;20029;-83
2021/10/07 02:50:11;;;;;;;6.55;4.18;;;6.90;70.80;;;;;;5056201;28;20036;-83
2021/10/07 02:52:37;;;;;;;5.18;3.50;;;6.90;71.00;;;;;;5038344;28;20039;-83
2021/10/07 02:55:03;;;;;;;7.93;3.40;;;6.90;71.00;;;;;;5049209;28;20020;-82
2021/10/07 02:57:29;;;;;;;7.72;3.58;;;6.80;71.10;;;;;;5061512;28;20033;-80
2021/10/07 02:59:55;;;;;;;8.48;3.70;;;6.80;71.10;;;;;;5039663;28;20114;-83
2021/10/07 03:02:21;;;;;;;7.22;4.30;;;6.80;71.10;;;;;;5053148;28;20027;-83
2021/10/07 03:04:46;;;;;;;7.65;3.40;;;6.70;71.10;;;;;;5064163;28;20029;-83
2021/10/07 03:07:12;;;;;;;6.95;3.72;;;6.70;71.10;;;;;;5037954;28;20387;-84
2021/10/07 03:09:39;;;;;;;6.18;3.70;;;6.70;71.10;;;;;;5070477;28;20063;-82
2021/10/07 03:12:05;;;;;;;4.82;3.42;;;6.70;71.10;;;;;;5058704;28;20040;-83
2021/10/07 03:14:31;;;;;;;7.25;4.18;;;6.70;71.10;;;;;;5057714;28;20382;-83
2021/10/07 03:16:57;;;;;;;9.40;4.13;;;6.60;71.10;;;;;;5044730;28;20032;-78
2021/10/07 03:19:22;;;;;;;8.35;3.92;;;6.60;71.20;;;;;;5046238;28;20028;-83
2021/10/07 03:21:48;;;;;;;8.30;4.25;;;6.60;71.10;;;;;;5037913;28;20045;-83
2021/10/07 03:24:14;;;;;;;8.50;4.65;;;6.60;71.20;;;;;;5057066;28;20102;-83
2021/10/07 03:26:39;;;;;;;6.82;3.75;;;6.60;71.20;;;;;;5075324;28;20020;-83
2021/10/07 03:29:05;;;;;;;6.15;3.70;;;6.60;71.20;;;;;;5072854;28;20066;-82
2021/10/07 03:31:31;;;;;;;7.43;4.00;;;6.60;71.10;;;;;;5048972;28;20032;-83
2021/10/07 03:33:57;;;;;;;7.72;4.00;;;6.50;70.90;;;;;;5048575;28;20109;-82
2021/10/07 03:36:23;;;;;;;6.15;4.15;;;6.50;70.70;;;;;;5072913;28;20105;-83
2021/10/07 03:38:48;;;;;;;9.55;4.03;;;6.40;70.50;;;;;;5037605;28;20033;-82
2021/10/07 03:41:14;;;;;;;6.72;4.47;;;6.40;71.10;;;;;;5055149;28;20041;-82
2021/10/07 03:43:40;;;;;;;7.03;3.80;;;6.30;70.70;;;;;;5037510;28;20025;-83
2021/10/07 03:46:05;;;;;;;7.57;4.10;;;6.30;70.80;;;;;;5054453;28;20368;-82
2021/10/07 03:48:31;;;;;;;12.18;4.07;;;6.30;70.90;;;;;;5064899;28;20040;-82
2021/10/07 03:50:57;;;;;;;7.18;3.80;;;6.20;71.00;;;;;;5061451;28;20040;-82
2021/10/07 03:53:23;;;;;;;7.18;3.70;;;6.20;71.00;;;;;;5045372;28;20036;-81
2021/10/07 03:55:49;;;;;;;7.78;3.97;;;6.10;71.00;;;;;;5037257;28;20025;-82
2021/10/07 03:58:14;;;;;;;7.82;4.30;;;6.10;71.00;;;;;;5044425;28;20016;-83
2021/10/07 04:00:40;;;;;;;6.80;3.63;;;6.10;71.00;;;;;;5039874;28;20045;-83
2021/10/07 04:03:06;;;;;;;7.15;4.30;;;6.10;71.40;;;;;;5044333;28;20063;-83
2021/10/07 04:05:32;;;;;;;11.57;4.40;;;6.10;71.20;;;;;;5037004;28;20030;-82
2021/10/07 04:07:58;;;;;;;7.50;4.20;;;6.10;70.90;;;;;;5048196;28;20052;-82
2021/10/07 04:10:23;;;;;;;7.82;4.28;;;6.10;71.00;;;;;;5054005;28;20331;-82
2021/10/07 04:12:49;;;;;;;7.00;4.10;;;6.20;71.30;;;;;;5068000;28;20471;-81
2021/10/07 04:15:15;;;;;;;5.65;3.97;;;6.20;71.20;;;;;;5062838;28;20101;-82
2021/10/07 04:17:40;;;;;;;8.68;4.07;;;6.20;71.30;;;;;;5044774;28;20028;-83
2021/10/07 04:20:07;;;;;;;7.95;4.03;;;6.20;71.20;;;;;;5042918;28;20040;-83
2021/10/07 04:22:32;;;;;;;9.43;3.80;;;6.30;71.20;;;;;;5062737;28;20033;-82
2021/10/07 04:24:58;;;;;;;8.52;3.55;;;6.30;71.10;;;;;;5040166;28;20036;-82
2021/10/07 04:27:24;;;;;;;10.05;5.97;;;6.40;70.80;;;;;;5042587;28;20025;-81
2021/10/07 04:29:50;;;;;;;9.02;4.63;;;6.40;70.50;;;;;;5062280;28;20043;-82
2021/10/07 04:32:16;;;;;;;10.48;3.80;;;6.50;70.50;;;;;;5040224;28;20025;-82
2021/10/07 04:34:41;;;;;;;8.55;3.95;;;6.70;70.50;;;;;;5062515;28;20025;-82
2021/10/07 04:37:07;;;;;;;7.43;3.67;;;6.90;70.00;;;;;;5036604;28;20474;-81
2021/10/07 04:39:33;;;;;;;9.23;3.65;;;7.10;69.50;;;;;;5044325;28;20437;-82
2021/10/07 04:41:59;;;;;;;7.65;3.70;;;7.30;69.10;;;;;;5058795;28;20116;-81
2021/10/07 04:44:24;;;;;;;7.20;3.55;;;7.50;68.20;;;;;;5036189;28;20032;-81
2021/10/07 04:46:50;;;;;;;7.32;3.70;;;7.70;67.40;;;;;;5043197;28;20025;-81
2021/10/07 04:49:16;;;;;;;8.15;3.95;;;7.80;67.00;;;;;;5045008;28;20391;-82
2021/10/07 04:51:41;;;;;;;8.05;3.35;;;7.80;66.40;;;;;;5065655;28;20063;-83
2021/10/07 04:54:07;;;;;;;7.10;3.97;;;7.70;65.70;;;;;;5039031;28;20031;-81
2021/10/07 04:56:33;;;;;;;12.38;4.68;;;7.70;66.20;;;;;;5037282;28;20025;-78
2021/10/07 04:58:58;;;;;;;9.77;4.88;;;7.90;66.40;;;;;;5044998;28;20117;-85
2021/10/07 05:01:24;;;;;;;10.80;4.38;;;8.20;66.10;;;;;;5052229;28;20071;-81
2021/10/07 05:03:50;;;;;;;14.27;4.80;;;8.60;65.20;;;;;;5044966;28;20467;-81
2021/10/07 05:06:17;;;;;;;12.40;4.38;;;8.90;64.30;;;;;;5063701;28;20028;-83
2021/10/07 05:08:43;;;;;;;14.50;4.25;;;9.20;63.50;;;;;;5040201;28;20116;-86
2021/10/07 05:11:08;;;;;;;11.68;4.35;;;9.60;62.50;;;;;;5071297;28;20173;-83
2021/10/07 05:13:34;;;;;;;11.77;4.28;;;9.90;61.90;;;;;;5056545;28;20426;-85
2021/10/07 05:16:00;;;;;;;8.63;3.78;;;10.30;61.00;;;;;;5047230;28;20028;-85
2021/10/07 05:18:25;;;;;;;9.40;4.03;;;10.50;59.70;;;;;;5058450;28;20032;-85
2021/10/07 05:20:53;;;;;;;7.60;4.15;;;10.90;59.00;;;;;;5036240;28;20033;-80
2021/10/07 05:23:19;;;;;;;7.82;4.03;;;11.30;58.30;;;;;;5055256;28;20116;-84
2021/10/07 05:25:47;;;;;;;8.40;4.47;;;11.60;57.30;;;;;;5053547;28;20025;-86
2021/10/07 05:28:13;;;;;;;8.82;3.80;;;11.80;56.60;;;;;;5059362;28;20107;-72
2021/10/07 05:30:39;;;;;;;9.93;4.22;;;12.10;55.50;;;;;;5090325;28;20040;-76
2021/10/07 05:33:04;;;;;;;7.82;3.75;;;12.40;54.70;;;;;;5073578;28;20031;-77
2021/10/07 05:35:30;;;;;;;11.02;3.95;;;12.30;53.90;;;;;;5072573;28;20028;-72
2021/10/07 05:37:56;;;;;;;8.27;3.70;;;12.30;54.00;;;;;;5059041;28;20052;-74
2021/10/07 05:40:22;;;;;;;10.07;4.03;;;12.40;53.70;;;;;;5073383;28;20041;-72
2021/10/07 05:42:47;;;;;;;11.40;4.03;;;12.20;52.70;;;;;;5060833;28;20031;-75
2021/10/07 05:45:13;;;;;;;8.95;3.67;;;12.20;52.90;;;;;;5057810;28;20769;-77
2021/10/07 05:47:40;;;;;;;6.05;3.42;;;12.30;53.00;;;;;;5057747;28;20399;-70
2021/10/07 05:50:08;;;;;;;9.13;3.75;;;12.50;52.70;;;;;;5060123;28;20036;-73
2021/10/07 05:52:33;;;;;;;10.88;4.35;;;12.60;51.90;;;;;;5048405;28;20056;-72
2021/10/07 05:54:59;;;;;;;7.00;3.90;;;12.70;51.90;;;;;;5050399;28;20083;-74
2021/10/07 05:57:25;;;;;;;12.65;3.80;;;12.70;51.80;;;;;;5033542;28;20044;-76
2021/10/07 05:59:51;;;;;;;20.00;4.38;;;12.90;51.20;;;;;;5051240;28;20028;-75
2021/10/07 06:02:17;;;;;;;9.40;4.30;;;12.90;50.90;;;;;;5052879;28;20091;-75
2021/10/07 06:04:43;;;;;;;8.18;3.17;;;12.90;51.20;;;;;;5052424;28;20456;-76
2021/10/07 06:07:09;;;;;;;14.05;5.35;;;13.20;51.30;;;;;;5053362;28;20094;-76
2021/10/07 06:09:34;;;;;;;12.63;4.70;;;13.30;51.10;;;;;;5038048;28;20097;-77
2021/10/07 06:12:00;;;;;;;8.60;4.07;;;13.50;51.00;;;;;;5057130;28;20573;-76
2021/10/07 06:14:26;;;;;;;9.25;3.80;;;13.80;50.20;;;;;;5046724;28;20170;-76
2021/10/07 06:16:55;;;;;;;11.15;4.65;;;14.10;49.60;;;;;;5077541;28;20032;-85
2021/10/07 06:19:23;;;;;;;6.60;3.30;;;14.10;48.90;;;;;;5076135;28;20463;-74
2021/10/07 06:21:51;;;;;;;9.52;5.65;;;14.30;48.80;;;;;;5077166;28;20035;-72
2021/10/07 06:24:17;;;;;;;10.98;5.78;;;14.40;48.30;;;;;;5058851;28;20028;-76
2021/10/07 06:26:44;;;;;;;10.77;4.72;;;14.40;47.90;;;;;;5077334;28;20439;-75
2021/10/07 06:29:11;;;;;;;7.85;3.72;;;14.40;48.00;;;;;;5077021;28;20100;-75
2021/10/07 06:31:37;;;;;;;9.70;4.90;;;14.70;47.60;;;;;;5058730;28;20040;-75
2021/10/07 06:34:05;;;;;;;7.70;3.92;;;14.70;47.10;;;;;;5076938;28;20067;-76
2021/10/07 06:36:32;;;;;;;8.98;3.58;;;14.90;47.00;;;;;;5058202;28;20364;-75
2021/10/07 06:38:58;;;;;;;9.43;3.22;;;15.00;45.80;;;;;;5076900;28;20020;-75
2021/10/07 06:41:23;;;;;;;10.57;3.22;;;14.90;45.60;;;;;;5058613;28;20039;-75
2021/10/07 06:43:50;;;;;;;12.27;3.30;;;15.10;45.90;;;;;;5076589;28;20470;-76
2021/10/07 06:46:15;;;;;;;8.57;3.10;;;15.10;45.30;;;;;;5076736;28;20116;-75
2021/10/07 06:48:41;;;;;;;7.47;3.40;;;15.30;45.60;;;;;;5077204;28;20104;-74
2021/10/07 06:51:11;;;;;;;10.13;3.58;;;15.50;45.20;;;;;;5058761;28;20035;-74
2021/10/07 06:53:37;;;;;;;11.82;4.70;;;15.50;44.90;;;;;;5057776;28;20029;-74
2021/10/07 06:56:07;;;;;;;6.88;4.25;;;15.40;44.50;;;;;;5076408;28;20433;-75
2021/10/07 06:58:33;;;;;;;8.80;3.97;;;15.30;44.50;;;;;;5058525;28;20028;-72
2021/10/07 07:00:59;;;;;;;9.80;3.58;;;14.90;44.20;;;;;;5076416;28;20483;-75
2021/10/07 07:03:25;;;;;;;7.63;2.97;;;14.70;44.60;;;;;;5076655;28;20060;-74
2021/10/07 07:05:51;;;;;;;13.50;3.15;;;14.50;44.90;;;;;;5076495;28;20032;-77
2021/10/07 07:08:16;;;;;;;18.33;4.90;;;14.30;44.90;;;;;;5058142;28;20057;-72
2021/10/07 07:10:42;;;;;;;14.23;4.68;;;13.90;45.40;;;;;;5058401;28;20055;-74
2021/10/07 07:13:09;;;;;;;13.00;3.30;;;13.90;46.10;;;;;;5076094;28;20051;-74
2021/10/07 07:15:35;;;;;;;10.18;3.22;;;14.20;46.60;;;;;;5057948;28;20500;-74
2021/10/07 07:18:01;;;;;;;10.88;2.92;;;14.40;45.50;;;;;;5076035;28;20020;-74
2021/10/07 07:20:26;;;;;;;8.57;2.70;;;14.40;45.40;;;;;;5075605;28;20071;-73
2021/10/07 07:22:52;;;;;;;6.30;2.70;;;14.70;45.10;;;;;;5057855;28;20074;-74
2021/10/07 07:25:18;;;;;;;8.25;2.63;;;14.80;44.90;;;;;;5075569;28;20033;-74
2021/10/07 07:27:44;;;;;;;8.98;2.35;;;15.00;44.80;;;;;;5056081;28;20360;-74
2021/10/07 07:30:11;;;;;;;7.03;2.95;;;15.40;44.30;;;;;;5037931;28;20032;-74
2021/10/07 07:32:37;;;;;;;8.65;2.85;;;15.50;43.60;;;;;;5056253;28;20049;-77
2021/10/07 07:35:04;;;;;;;10.32;3.33;;;15.60;43.30;;;;;;5055796;28;20068;-75
2021/10/07 07:37:30;;;;;;;11.88;3.30;;;15.80;43.30;;;;;;5055737;28;20032;-74
2021/10/07 07:39:55;;;;;;;8.48;3.53;;;15.90;42.70;;;;;;5055728;28;20104;-74
2021/10/07 07:42:21;;;;;;;11.05;3.28;;;15.90;42.40;;;;;;5038542;28;20036;-74
2021/10/07 07:44:47;;;;;;;9.40;3.15;;;16.00;42.60;;;;;;5037499;28;20364;-74
2021/10/07 07:47:13;;;;;;;8.52;2.88;;;16.30;42.20;;;;;;5038313;28;20057;-76
2021/10/07 07:49:39;;;;;;;8.85;3.05;;;16.30;41.50;;;;;;5037641;28;20056;-74
2021/10/07 07:52:06;;;;;;;7.78;3.30;;;16.40;41.80;;;;;;5037833;28;20040;-74
2021/10/07 07:54:31;;;;;;;9.60;3.75;;;16.50;41.90;;;;;;5068663;28;20021;-75
2021/10/07 07:56:57;;;;;;;9.07;3.63;;;16.70;41.10;;;;;;5057426;28;20027;-74
2021/10/07 07:59:23;;;;;;;9.93;3.70;;;16.90;40.60;;;;;;5056673;28;20020;-75
2021/10/07 08:01:49;;;;;;;9.35;4.22;;;16.90;40.00;;;;;;5057396;28;20484;-78
2021/10/07 08:04:15;;;;;;;9.50;4.85;;;16.70;40.20;;;;;;5075342;28;20024;-74
2021/10/07 08:06:40;;;;;;;7.57;3.40;;;16.70;40.70;;;;;;5056921;28;20143;-74
2021/10/07 08:09:08;;;;;;;17.10;4.50;;;16.70;41.00;;;;;;5057268;28;20116;-74
2021/10/07 08:11:39;;;;;;;15.40;4.28;;;16.60;40.30;;;;;;5057232;28;20471;-73
2021/10/07 08:14:07;;;;;;;9.10;4.05;;;16.70;40.30;;;;;;5075141;28;20358;-75
2021/10/07 08:16:42;;;;;;;6.20;3.72;;;17.00;40.30;;;;;;5073608;28;20029;-74
2021/10/07 08:19:07;;;;;;;12.05;3.90;;;17.20;40.10;;;;;;5037377;28;20032;-74
2021/10/07 08:21:33;;;;;;;11.82;4.80;;;17.20;39.10;;;;;;5054744;28;20036;-71
2021/10/07 08:24:05;;;;;;;14.50;5.60;;;17.20;38.80;;;;;;5055068;28;20104;-74
2021/10/07 08:26:30;;;;;;;14.20;5.00;;;17.40;39.10;;;;;;5055232;28;20035;-75
2021/10/07 08:28:56;;;;;;;12.18;5.07;;;17.60;38.30;;;;;;5037342;28;20032;-80
2021/10/07 08:31:22;;;;;;;13.60;5.85;;;17.70;37.70;;;;;;5054096;28;20028;-72
2021/10/07 08:33:47;;;;;;;13.20;4.70;;;17.60;37.30;;;;;;5037621;28;20425;-72
2021/10/07 08:36:13;;;;;;;13.20;5.07;;;17.60;37.70;;;;;;5054774;28;20107;-70
2021/10/07 08:38:38;;;;;;;11.05;5.63;;;18.00;38.00;;;;;;5054717;28;20104;-74
2021/10/07 08:41:04;;;;;;;15.95;5.80;;;18.30;36.70;;;;;;5036356;28;20037;-74
2021/10/07 08:43:30;;;;;;;14.45;4.43;;;18.20;36.40;;;;;;5058595;28;20032;-71
2021/10/07 08:45:56;;;;;;;14.65;6.07;;;18.20;36.20;;;;;;5074556;28;20025;-73
2021/10/07 08:48:22;;;;;;;13.15;6.40;;;18.20;35.80;;;;;;5074645;28;20072;-72
2021/10/07 08:50:47;;;;;;;12.52;3.95;;;18.20;36.50;;;;;;5052622;28;20025;-72
2021/10/07 08:53:13;;;;;;;16.25;5.18;;;18.20;36.30;;;;;;5054246;28;20412;-69
2021/10/07 08:55:39;;;;;;;13.35;5.32;;;18.10;35.40;;;;;;5036444;28;20443;-70
2021/10/07 08:58:04;;;;;;;11.45;4.60;;;17.80;35.10;;;;;;5054395;28;20021;-70
2021/10/07 09:00:30;;;;;;;13.50;3.95;;;17.60;35.70;;;;;;5054409;28;20083;-73
2021/10/07 09:02:56;;;;;;;8.95;3.25;;;17.40;35.70;;;;;;5054686;28;20025;-71
2021/10/07 09:05:24;;;;;;;14.50;3.38;;;17.30;36.20;;;;;;5036552;28;20025;-74
2021/10/07 09:08:05;;;;;;;9.48;2.50;;;17.40;36.30;;;;;;5054866;28;20373;-74
2021/10/07 09:10:55;;;;;;;12.10;3.08;;;17.30;36.00;;;;;;5036383;28;20040;-77
2021/10/07 09:13:25;;;;;;;8.45;2.63;;;17.30;35.80;;;;;;5054491;28;20067;-73
2021/10/07 09:15:59;;;;;;;8.32;2.20;;;17.30;35.40;;;;;;5072803;28;20032;-79
2021/10/07 09:18:27;;;;;;;9.35;2.58;;;17.40;35.30;;;;;;5074094;28;20025;-74
2021/10/07 09:20:55;;;;;;;8.48;2.38;;;17.50;35.50;;;;;;5056012;28;20029;-73
2021/10/07 09:23:33;;;;;;;7.00;2.33;;;17.60;35.10;;;;;;5055922;28;20032;-73
2021/10/07 09:26:07;;;;;;;12.23;2.13;;;17.40;34.60;;;;;;5073309;28;20375;-73
2021/10/07 09:28:52;;;;;;;11.43;5.85;;;17.20;35.20;;;;;;5073697;28;20086;-71
2021/10/07 09:31:26;;;;;;;8.48;2.70;;;17.30;36.00;;;;;;5055838;28;20082;-73
2021/10/07 09:33:57;;;;;;;10.75;2.05;;;17.50;36.10;;;;;;5073696;28;20384;-73
2021/10/07 09:36:23;;;;;;;8.60;3.08;;;17.90;35.60;;;;;;5055950;28;20030;-73
2021/10/07 09:38:52;;;;;;;5.07;2.10;;;18.10;35.80;;;;;;5073789;28;20024;-74
2021/10/07 09:41:30;;;;;;;10.20;1.80;;;18.40;35.20;;;;;;5054992;28;20029;-74
2021/10/07 09:44:06;;;;;;;9.43;2.33;;;18.50;34.50;;;;;;5052765;28;20056;-74
2021/10/07 09:46:50;;;;;;;7.53;1.83;;;18.30;34.10;;;;;;5053659;28;20060;-74
2021/10/07 09:49:31;;;;;;;6.90;1.90;;;18.20;34.40;;;;;;5035532;28;20501;-71
2021/10/07 09:51:57;;;;;;;13.32;6.13;;;18.10;34.30;;;;;;5053363;28;20476;-73
2021/10/07 09:54:27;;;;;;;19.55;9.82;;;18.00;34.20;;;;;;5053503;28;20379;-76
2021/10/07 09:56:58;;;;;;;15.00;3.95;;;18.10;34.80;;;;;;5053542;28;20029;-71
2021/10/07 09:59:26;;;;;;;10.95;2.58;;;18.30;34.60;;;;;;5054092;28;20025;-73
2021/10/07 10:01:54;;;;;;;15.43;2.30;;;18.40;33.90;;;;;;5053326;28;20060;-75
2021/10/07 10:04:20;;;;;;;11.15;3.15;;;18.30;33.70;;;;;;5059936;28;20044;-73
2021/10/07 10:06:46;;;;;;;13.52;2.80;;;18.20;33.60;;;;;;5047409;28;20081;-74
2021/10/07 10:09:12;;;;;;;11.65;3.00;;;18.20;33.90;;;;;;5033202;28;20520;-71
2021/10/07 10:11:41;;;;;;;10.25;3.60;;;18.30;33.80;;;;;;5033192;28;20108;-73
2021/10/07 10:14:07;;;;;;;14.25;4.43;;;18.30;33.70;;;;;;5031951;28;20021;-73
2021/10/07 10:16:36;;;;;;;12.82;3.70;;;18.40;34.20;;;;;;5021804;28;20164;-73
2021/10/07 10:19:03;;;;;;;13.48;3.42;;;18.40;34.10;;;;;;5012400;28;20025;-73
2021/10/07 10:21:34;;;;;;;16.33;3.63;;;18.50;34.50;;;;;;5012322;28;20428;-72
2021/10/07 10:24:01;;;;;;;14.85;4.15;;;18.50;33.80;;;;;;5013771;28;20040;-73
2021/10/07 10:26:27;;;;;;;11.75;3.35;;;18.30;34.00;;;;;;5012398;28;20472;-73
2021/10/07 10:28:54;;;;;;;11.23;3.03;;;18.40;34.50;;;;;;5013285;28;20112;-71
2021/10/07 10:31:36;;;;;;;11.70;3.53;;;18.30;34.00;;;;;;5013316;28;20109;-73
2021/10/07 10:34:16;;;;;;;21.38;3.85;;;18.20;34.30;;;;;;5014440;28;20103;-78
2021/10/07 10:36:47;;;;;;;14.38;3.50;;;18.00;34.50;;;;;;5012357;28;20033;-73
2021/10/07 10:39:38;;;;;;;12.23;3.95;;;17.90;34.70;;;;;;5013571;28;20022;-70
2021/10/07 10:42:18;;;;;;;12.20;2.88;;;18.00;34.90;;;;;;5013526;28;20458;-72
2021/10/07 10:44:58;;;;;;;7.55;2.42;;;17.90;34.70;;;;;;5013751;28;20060;-73
2021/10/07 10:47:25;;;;;;;10.43;2.85;;;17.80;34.70;;;;;;5012286;28;20091;-70
2021/10/07 10:49:51;;;;;;;12.35;4.38;;;17.80;35.10;;;;;;5012532;28;20034;-78
2021/10/07 10:52:38;;;;;;;14.38;3.13;;;18.00;35.50;;;;;;5013617;28;20107;-74
2021/10/07 10:55:21;;;;;;;11.13;2.60;;;18.20;35.10;;;;;;5031555;28;20022;-73
2021/10/07 10:57:59;;;;;;;9.40;2.80;;;18.00;34.90;;;;;;5035367;28;20033;-73
2021/10/07 11:00:29;;;;;;;9.63;2.90;;;17.80;34.90;;;;;;5035495;28;20072;-73
2021/10/07 11:03:17;;;;;;;9.55;2.70;;;17.90;34.50;;;;;;5035365;28;20025;-72
2021/10/07 11:06:03;;;;;;;10.30;2.85;;;17.90;34.10;;;;;;5036729;28;20037;-73
2021/10/07 11:08:31;;;;;;;8.77;3.03;;;17.70;34.20;;;;;;5072654;28;20048;-73
2021/10/07 11:10:58;;;;;;;7.10;2.17;;;17.50;34.50;;;;;;5076072;28;20025;-72
2021/10/07 11:13:29;;;;;;;13.98;2.70;;;17.60;34.80;;;;;;5058919;28;20052;-73
2021/10/07 11:15:58;;;;;;;9.73;2.80;;;17.60;34.60;;;;;;5058251;28;20039;-73
2021/10/07 11:18:33;;;;;;;7.93;2.50;;;17.40;34.70;;;;;;5058347;28;20189;-72
2021/10/07 11:21:02;;;;;;;9.93;2.55;;;17.40;34.70;;;;;;5075904;28;20111;-73
2021/10/07 11:23:32;;;;;;;8.90;2.15;;;17.40;34.90;;;;;;5056681;28;20053;-72
2021/10/07 11:25:59;;;;;;;8.68;2.50;;;17.50;35.00;;;;;;5038121;28;20029;-73
2021/10/07 11:28:30;;;;;;;7.00;2.25;;;17.60;35.30;;;;;;5056287;28;20040;-73
2021/10/07 11:31:07;;;;;;;7.20;1.88;;;17.90;34.50;;;;;;5056046;28;20034;-72
2021/10/07 11:33:36;;;;;;;8.57;1.80;;;18.00;33.60;;;;;;5055859;28;20043;-71
2021/10/07 11:36:10;;;;;;;7.18;1.98;;;18.00;33.80;;;;;;5037603;28;20025;-72
2021/10/07 11:38:41;;;;;;;7.68;2.10;;;17.90;34.20;;;;;;5038434;28;20052;-75
2021/10/07 11:41:09;;;;;;;7.22;2.00;;;17.80;34.60;;;;;;5056167;28;20037;-73
2021/10/07 11:43:37;;;;;;;8.15;2.10;;;17.90;34.90;;;;;;5047185;28;20044;-72
2021/10/07 11:46:12;;;;;;;10.43;3.05;;;18.00;34.20;;;;;;5076055;28;20413;-73
2021/10/07 11:48:45;;;;;;;;;;;18.00;34.20;;;;;;5076413;28;20141;-73
2021/10/07 11:51:12;;;;;;;8.05;2.35;;;18.10;34.60;;;;;;5075644;28;19904;-77
2021/10/07 11:53:41;;;;;;;28.75;15.02;;;17.90;34.50;;;;;;5057375;28;20021;-72
2021/10/07 11:56:15;;;;;;;17.10;9.13;;;17.70;35.10;;;;;;5075543;28;20024;-72
2021/10/07 11:58:47;;;;;;;14.00;4.70;;;17.80;35.40;;;;;;5074637;28;20021;-73
2021/10/07 12:01:14;;;;;;;13.82;7.97;;;17.90;35.90;;;;;;5075587;28;20021;-71
2021/10/07 12:03:39;;;;;;;18.38;8.93;;;18.00;36.20;;;;;;5075754;28;20079;-77
2021/10/07 12:06:09;;;;;;;10.48;6.97;;;18.10;36.50;;;;;;5074525;28;20398;-73
2021/10/07 12:08:40;;;;;;;11.38;5.10;;;18.10;36.20;;;;;;5074786;28;20061;-73
2021/10/07 12:11:15;;;;;;;13.95;4.65;;;17.90;36.10;;;;;;5057061;28;20142;-73
2021/10/07 12:13:45;;;;;;;7.13;2.10;;;17.60;35.80;;;;;;5075377;28;20043;-74
2021/10/07 12:16:16;;;;;;;5.20;2.45;;;17.30;36.40;;;;;;5056404;28;20082;-74
2021/10/07 12:18:43;;;;;;;9.15;2.35;;;16.80;35.90;;;;;;5075278;28;20025;-72
2021/10/07 12:21:18;;;;;;;12.65;6.50;;;16.40;36.30;;;;;;5056953;28;20078;-73
2021/10/07 12:23:50;;;;;;;11.75;6.47;;;16.10;36.00;;;;;;5074719;28;20467;-72
2021/10/07 12:26:44;;;;;;;10.20;4.32;;;15.80;36.10;;;;;;5057329;28;20032;-72
2021/10/07 12:29:30;;;;;;;7.05;2.80;;;15.40;36.20;;;;;;5057047;28;20036;-78
2021/10/07 12:32:04;;;;;;;10.98;3.53;;;14.80;36.70;;;;;;5073706;28;20032;-72
2021/10/07 12:34:32;;;;;;;10.27;5.15;;;14.50;37.10;;;;;;5056831;28;20021;-76
2021/10/07 12:37:00;;;;;;;13.77;7.40;;;14.10;37.90;;;;;;5074803;28;20021;-76
2021/10/07 12:39:27;;;;;;;15.93;8.90;;;13.80;39.20;;;;;;5056639;28;20028;-72
2021/10/07 12:42:06;;;;;;;9.07;2.97;;;13.60;40.30;;;;;;5074455;28;20025;-73
2021/10/07 12:44:38;;;;;;;7.88;2.70;;;13.40;40.30;;;;;;5056527;28;20032;-70
2021/10/07 12:47:09;;;;;;;8.80;2.45;;;13.20;41.10;;;;;;5056719;28;20027;-73
2021/10/07 12:49:42;;;;;;;10.40;2.28;;;13.00;40.70;;;;;;5073353;28;20052;-73
2021/10/07 12:52:17;;;;;;;9.25;2.88;;;12.70;40.90;;;;;;5056900;28;20035;-74
2021/10/07 12:55:06;;;;;;;6.60;2.85;;;12.60;41.50;;;;;;5056625;28;20028;-73
2021/10/07 12:57:49;;;;;;;19.35;13.00;;;12.40;41.80;;;;;;5056856;28;20031;-70
2021/10/07 13:00:28;;;;;;;13.43;3.38;;;12.30;42.30;;;;;;5074154;28;20378;-73